Terminal Aerodrome Forecast
Issued by NWS Shreveport, LA

Home | Current Version | Previous Version | Text Only | Print | Product List | Glossary On
Versions: 1 2 3 4 5 6 7 8 9 10 11 12 13 14 15
000
FTUS44 KSHV 070532
TAFLFK
TAF
KLFK 070532Z 0706/0806 13005KT P6SM SCT017 BKN250
      TEMPO 0706/0708 BKN015
     FM070800 13005KT P6SM SCT007 BKN012
      TEMPO 0708/0711 OVC007
     FM071100 13005KT P6SM OVC007
     FM071600 15008KT P6SM OVC015
     FM071800 15011KT P6SM BKN035
     FM080100 15007KT P6SM SCT050 SCT250=

USA.gov is the U.S. government's official web portal to all federal, state and local government web resources and services.